createdAt,value
2018-12-22T00:02:19.102Z,93.20
2018-12-22T00:04:46.040Z,93.10
2018-12-22T00:07:13.007Z,93.20
2018-12-22T00:09:39.957Z,93.30
2018-12-22T00:12:06.930Z,93.10
2018-12-22T00:14:33.868Z,93.20
2018-12-22T00:17:00.862Z,93.20
2018-12-22T00:19:27.816Z,93.60
2018-12-22T00:21:54.772Z,93.30
2018-12-22T00:24:21.729Z,93.20
2018-12-22T00:26:48.681Z,93.10
2018-12-22T00:29:15.625Z,93.20
2018-12-22T00:31:42.601Z,93.10
2018-12-22T00:34:09.551Z,93.10
2018-12-22T00:36:36.501Z,93.20
2018-12-22T00:39:05.060Z,93.00
2018-12-22T00:41:32.021Z,92.80
2018-12-22T00:43:58.962Z,92.90
2018-12-22T00:46:25.940Z,92.80
2018-12-22T00:48:52.898Z,93.00
2018-12-22T00:51:19.857Z,93.00
2018-12-22T00:53:46.845Z,93.00
2018-12-22T00:56:13.788Z,93.10
2018-12-22T00:58:40.737Z,93.20
2018-12-22T01:01:08.145Z,93.40
2018-12-22T01:03:35.117Z,93.50
2018-12-22T01:06:02.078Z,93.70
2018-12-22T01:08:29.045Z,94.20
2018-12-22T01:10:55.991Z,94.50
2018-12-22T01:13:22.997Z,94.80
2018-12-22T01:15:49.980Z,95.00
2018-12-22T01:18:16.954Z,95.10
2018-12-22T01:20:43.915Z,95.30
2018-12-22T01:23:10.991Z,95.60
2018-12-22T01:25:37.852Z,95.90
2018-12-22T01:28:04.801Z,96.00
2018-12-22T01:30:31.794Z,96.10
2018-12-22T01:32:58.750Z,96.10
2018-12-22T01:35:25.707Z,96.10
2018-12-22T01:37:52.696Z,96.20
2018-12-22T01:40:19.638Z,96.60
2018-12-22T01:42:46.588Z,96.20
2018-12-22T01:45:13.558Z,96.00
2018-12-22T01:47:40.524Z,96.10
2018-12-22T01:50:07.467Z,96.10
2018-12-22T01:52:34.461Z,96.10
2018-12-22T01:55:01.390Z,95.80
2018-12-22T01:57:28.326Z,96.00
2018-12-22T01:59:55.298Z,95.80
2018-12-22T02:02:22.506Z,95.90
2018-12-22T02:04:49.448Z,95.90
2018-12-22T02:07:16.434Z,95.90
2018-12-22T02:09:43.393Z,95.80
2018-12-22T02:12:10.342Z,96.10
2018-12-22T02:14:37.284Z,96.00
2018-12-22T02:17:04.250Z,95.90
2018-12-22T02:19:31.212Z,95.80
2018-12-22T02:21:58.179Z,96.00
2018-12-22T02:24:25.135Z,96.00
2018-12-22T02:26:52.087Z,96.20
2018-12-22T02:29:19.063Z,96.30
2018-12-22T02:31:46.015Z,96.30
2018-12-22T02:34:13.017Z,96.50
2018-12-22T02:36:40.001Z,96.60
2018-12-22T02:39:06.955Z,96.70
2018-12-22T02:41:33.905Z,97.20
2018-12-22T02:44:00.874Z,96.90
2018-12-22T02:46:27.836Z,96.80
2018-12-22T02:48:54.804Z,97.00
2018-12-22T02:51:21.767Z,96.90
2018-12-22T02:53:48.736Z,96.90
2018-12-22T02:56:15.696Z,97.10
2018-12-22T02:58:42.660Z,97.00
2018-12-22T03:01:09.686Z,96.90
2018-12-22T03:03:37.025Z,97.00
2018-12-22T03:06:04.005Z,97.00
2018-12-22T03:08:31.069Z,96.80
2018-12-22T03:10:58.024Z,96.80
2018-12-22T03:13:25.001Z,96.90
2018-12-22T03:15:51.954Z,96.70
2018-12-22T03:18:18.893Z,96.90
2018-12-22T03:20:45.868Z,96.80
2018-12-22T03:23:12.825Z,96.70
2018-12-22T03:25:39.767Z,96.70
2018-12-22T03:28:06.728Z,97.00
2018-12-22T03:30:33.677Z,96.60
2018-12-22T03:33:00.670Z,96.20
2018-12-22T03:35:27.618Z,96.30
2018-12-22T03:37:54.574Z,96.50
2018-12-22T03:40:21.542Z,96.40
2018-12-22T03:42:48.514Z,96.60
2018-12-22T03:45:15.453Z,96.80
2018-12-22T03:47:42.418Z,97.50
2018-12-22T03:50:09.383Z,97.60
2018-12-22T03:52:36.370Z,97.30
2018-12-22T03:55:03.328Z,97.30
2018-12-22T03:57:30.282Z,97.50
2018-12-22T03:59:57.335Z,97.40
2018-12-22T04:02:24.279Z,97.50
2018-12-22T04:04:51.851Z,97.50
2018-12-22T04:07:18.787Z,97.30
2018-12-22T04:09:45.746Z,97.10
2018-12-22T04:12:12.724Z,97.20
2018-12-22T04:14:39.690Z,97.10
2018-12-22T04:17:06.655Z,96.90
2018-12-22T04:19:33.614Z,96.70
2018-12-22T04:22:00.550Z,96.50
2018-12-22T04:24:27.485Z,96.20
2018-12-22T04:26:54.438Z,95.80
2018-12-22T04:29:21.371Z,95.80
2018-12-22T04:31:50.681Z,95.80
2018-12-22T04:34:15.289Z,95.70
2018-12-22T04:36:42.236Z,95.50
2018-12-22T04:39:09.170Z,95.20
2018-12-22T04:41:36.127Z,95.10
2018-12-22T04:44:03.086Z,95.20
2018-12-22T04:46:30.023Z,95.20
2018-12-22T04:48:56.989Z,95.10
2018-12-22T04:51:23.923Z,95.20
2018-12-22T04:53:50.872Z,94.90
2018-12-22T04:56:17.857Z,94.70
2018-12-22T04:58:44.801Z,94.50
2018-12-22T05:01:11.745Z,94.50
2018-12-22T05:03:38.713Z,94.30
2018-12-22T05:06:06.196Z,94.10
2018-12-22T05:08:33.189Z,93.80
2018-12-22T05:11:00.142Z,93.90
2018-12-22T05:13:27.070Z,93.80
2018-12-22T05:15:53.996Z,93.50
2018-12-22T05:18:20.983Z,93.30
2018-12-22T05:20:47.948Z,93.00
2018-12-22T05:23:14.871Z,92.70
2018-12-22T05:25:41.836Z,92.80
2018-12-22T05:28:08.765Z,92.60
2018-12-22T05:30:35.708Z,92.50
2018-12-22T05:33:02.680Z,91.90
2018-12-22T05:35:29.628Z,92.00
2018-12-22T05:37:56.548Z,92.20
2018-12-22T05:40:23.511Z,92.00
2018-12-22T05:42:50.469Z,91.40
2018-12-22T05:45:17.423Z,91.20
2018-12-22T05:47:44.371Z,91.00
2018-12-22T05:50:11.313Z,90.70
2018-12-22T05:52:38.265Z,90.90
2018-12-22T05:55:05.250Z,90.60
2018-12-22T05:57:32.196Z,89.70
2018-12-22T06:00:00.669Z,89.80
2018-12-22T06:02:26.153Z,90.00
2018-12-22T06:04:53.092Z,89.70
2018-12-22T06:07:20.705Z,90.00
2018-12-22T06:09:47.721Z,88.60
2018-12-22T06:12:14.660Z,88.80
2018-12-22T06:14:41.852Z,88.60
2018-12-22T06:17:08.865Z,89.50
2018-12-22T06:19:35.820Z,89.20
2018-12-22T06:22:02.785Z,89.40
2018-12-22T06:24:29.768Z,89.80
2018-12-22T06:26:56.723Z,88.70
2018-12-22T06:29:23.705Z,89.80
2018-12-22T06:31:50.611Z,90.50
2018-12-22T06:34:17.665Z,90.80
2018-12-22T06:36:44.608Z,91.10
2018-12-22T06:39:11.575Z,91.60
2018-12-22T06:41:38.548Z,91.60
2018-12-22T06:44:05.532Z,91.80
2018-12-22T06:46:32.508Z,92.10
2018-12-22T06:48:59.468Z,92.10
2018-12-22T06:51:26.414Z,92.80
2018-12-22T06:53:53.381Z,92.90
2018-12-22T06:56:20.324Z,93.20
2018-12-22T06:58:47.274Z,94.00
2018-12-22T07:01:14.271Z,94.00
2018-12-22T07:03:41.262Z,94.60
2018-12-22T07:06:08.213Z,94.50
2018-12-22T07:08:35.518Z,94.90
2018-12-22T07:11:02.487Z,95.40
2018-12-22T07:13:29.441Z,95.30
2018-12-22T07:15:56.407Z,95.10
2018-12-22T07:18:23.366Z,95.20
2018-12-22T07:20:50.297Z,95.00
2018-12-22T07:23:17.263Z,95.10
2018-12-22T07:25:44.188Z,95.10
2018-12-22T07:28:11.132Z,94.70
2018-12-22T07:30:38.093Z,93.80
2018-12-22T07:33:05.038Z,93.50
2018-12-22T07:35:31.989Z,93.10
2018-12-22T07:37:58.994Z,92.90
2018-12-22T07:40:25.939Z,93.20
2018-12-22T07:42:52.897Z,93.00
2018-12-22T07:45:19.918Z,93.40
2018-12-22T07:47:46.843Z,93.70
2018-12-22T07:50:13.771Z,93.90
2018-12-22T07:52:40.749Z,94.20
2018-12-22T07:55:07.703Z,93.80
2018-12-22T07:57:34.676Z,94.20
2018-12-22T08:00:01.641Z,95.10
2018-12-22T08:02:28.580Z,95.60
2018-12-22T08:04:55.515Z,96.20
2018-12-22T08:07:22.498Z,96.60
2018-12-22T08:09:49.868Z,96.60
2018-12-22T08:12:16.869Z,96.30
2018-12-22T08:14:43.888Z,95.80
2018-12-22T08:17:10.834Z,95.80
2018-12-22T08:19:37.829Z,95.50
2018-12-22T08:22:04.828Z,95.50
2018-12-22T08:24:31.837Z,95.50
2018-12-22T08:26:58.853Z,95.60
2018-12-22T08:29:25.856Z,95.50
2018-12-22T08:31:52.873Z,94.90
2018-12-22T08:34:19.823Z,95.00
2018-12-22T08:36:46.775Z,94.40
2018-12-22T08:39:13.727Z,94.40
2018-12-22T08:41:40.659Z,94.50
2018-12-22T08:44:07.628Z,94.20
2018-12-22T08:46:34.551Z,93.90
2018-12-22T08:49:01.476Z,94.00
2018-12-22T08:51:28.484Z,93.70
2018-12-22T08:53:55.435Z,92.90
2018-12-22T08:56:22.383Z,93.10
2018-12-22T08:58:49.333Z,93.00
2018-12-22T09:01:16.260Z,92.60
2018-12-22T09:03:43.204Z,92.20
2018-12-22T09:06:10.173Z,92.50
2018-12-22T09:08:37.105Z,92.70
2018-12-22T09:11:04.460Z,92.60
2018-12-22T09:13:31.409Z,92.70
2018-12-22T09:15:58.352Z,92.80
2018-12-22T09:18:25.278Z,93.20
2018-12-22T09:20:52.258Z,93.00
2018-12-22T09:23:19.212Z,92.90
2018-12-22T09:25:46.147Z,92.70
2018-12-22T09:28:13.144Z,92.80
2018-12-22T09:30:40.088Z,92.70
2018-12-22T09:33:07.064Z,92.90
2018-12-22T09:35:34.038Z,93.20
2018-12-22T09:38:00.979Z,93.70
2018-12-22T09:40:27.908Z,94.20
2018-12-22T09:42:54.918Z,94.50
2018-12-22T09:45:21.843Z,94.70
2018-12-22T09:47:48.784Z,94.90
2018-12-22T09:50:15.731Z,94.60
2018-12-22T09:52:42.768Z,94.60
2018-12-22T09:55:09.695Z,94.60
2018-12-22T09:57:36.703Z,94.60
2018-12-22T10:00:05.584Z,94.70
2018-12-22T10:02:32.528Z,94.80
2018-12-22T10:04:59.527Z,94.50
2018-12-22T10:07:26.472Z,94.20
2018-12-22T10:09:53.477Z,93.50
2018-12-22T10:12:21.035Z,93.90
2018-12-22T10:14:48.001Z,92.50
2018-12-22T10:17:15.020Z,93.20
2018-12-22T10:19:42.021Z,92.90
2018-12-22T10:22:08.999Z,92.80
2018-12-22T10:24:35.939Z,93.10
2018-12-22T10:27:02.890Z,92.40
2018-12-22T10:29:29.948Z,92.00
2018-12-22T10:31:57.037Z,92.00
2018-12-22T10:34:24.042Z,91.90
2018-12-22T10:36:50.996Z,92.10
2018-12-22T10:39:17.941Z,92.00
2018-12-22T10:41:44.921Z,91.20
2018-12-22T10:44:11.864Z,91.20
2018-12-22T10:46:38.804Z,90.70
2018-12-22T10:49:05.789Z,90.50
2018-12-22T10:51:32.770Z,90.30
2018-12-22T10:53:59.726Z,91.10
2018-12-22T10:56:26.691Z,89.10
2018-12-22T10:58:53.667Z,90.10
2018-12-22T11:01:26.457Z,90.10
2018-12-22T11:03:47.576Z,89.40
2018-12-22T11:06:14.524Z,88.50
2018-12-22T11:08:42.577Z,89.10
2018-12-22T11:11:09.557Z,90.20
2018-12-22T11:13:36.952Z,90.40
2018-12-22T11:16:03.891Z,90.80
2018-12-22T11:18:30.904Z,91.20
2018-12-22T11:20:57.860Z,91.70
2018-12-22T11:23:24.807Z,92.30
2018-12-22T11:25:51.763Z,92.70
2018-12-22T11:28:18.739Z,92.00
2018-12-22T11:30:46.088Z,92.40
2018-12-22T11:33:13.109Z,92.00
2018-12-22T11:35:40.098Z,91.90
2018-12-22T11:38:07.049Z,92.10
2018-12-22T11:40:34.008Z,91.20
2018-12-22T11:43:00.940Z,90.90
2018-12-22T11:45:27.886Z,90.20
2018-12-22T11:48:09.923Z,90.30
2018-12-22T11:50:36.848Z,90.30
2018-12-22T11:53:03.808Z,90.80
2018-12-22T11:55:30.803Z,91.40
2018-12-22T11:57:57.760Z,91.60
2018-12-22T12:00:24.700Z,91.50
2018-12-22T12:02:51.654Z,91.60
2018-12-22T12:05:18.636Z,91.60
2018-12-22T12:07:45.640Z,91.60
2018-12-22T12:10:12.618Z,91.30
2018-12-22T12:12:39.565Z,91.40
2018-12-22T12:15:13.784Z,91.20
2018-12-22T12:17:52.435Z,91.20
2018-12-22T12:20:19.400Z,90.20
2018-12-22T12:22:46.371Z,90.20
2018-12-22T12:25:13.324Z,89.90
2018-12-22T12:27:40.311Z,89.80
2018-12-22T12:30:08.977Z,88.40
2018-12-22T12:32:35.938Z,88.60
2018-12-22T12:35:03.449Z,88.10
2018-12-22T12:37:30.393Z,86.60
2018-12-22T12:39:57.333Z,84.00
2018-12-22T12:42:24.295Z,83.40
2018-12-22T12:44:51.243Z,81.70
2018-12-22T12:47:18.177Z,79.40
2018-12-22T12:49:45.132Z,76.70
2018-12-22T12:52:12.080Z,75.00
2018-12-22T12:54:39.039Z,75.20
2018-12-22T12:57:06.015Z,75.40
2018-12-22T12:59:33.435Z,76.10
2018-12-22T13:02:01.697Z,76.80
2018-12-22T13:04:28.647Z,77.60
2018-12-22T13:06:55.591Z,79.00
2018-12-22T13:09:22.565Z,80.00
2018-12-22T13:11:51.453Z,79.50
2018-12-22T13:14:21.191Z,80.90
2018-12-22T13:16:48.504Z,81.40
2018-12-22T13:19:15.492Z,83.00
2018-12-22T13:21:49.061Z,83.00
2018-12-22T13:24:16.065Z,83.80
2018-12-22T13:26:43.008Z,86.90
2018-12-22T13:29:09.940Z,88.30
2018-12-22T13:31:37.134Z,89.10
2018-12-22T13:34:04.061Z,90.20
2018-12-22T13:36:34.796Z,90.70
2018-12-22T13:39:06.079Z,90.70
2018-12-22T13:41:33.068Z,91.10
2018-12-22T13:44:00.011Z,91.40
2018-12-22T13:46:26.984Z,91.40
2018-12-22T13:48:54.002Z,91.70
2018-12-22T13:51:20.962Z,91.80
2018-12-22T13:53:47.888Z,91.70
2018-12-22T13:56:14.836Z,91.70
2018-12-22T13:58:41.785Z,91.40
2018-12-22T14:01:12.311Z,91.70
2018-12-22T14:03:41.617Z,91.80
2018-12-22T14:06:14.289Z,91.80
2018-12-22T14:08:41.244Z,91.90
2018-12-22T14:11:08.216Z,91.50
2018-12-22T14:13:35.175Z,91.50
2018-12-22T14:16:16.908Z,91.90
2018-12-22T14:18:55.116Z,90.30
2018-12-22T14:21:22.053Z,89.30
2018-12-22T14:24:15.204Z,87.80
2018-12-22T14:26:42.898Z,85.90
2018-12-22T14:29:09.772Z,83.70
2018-12-22T14:31:37.526Z,84.20
2018-12-22T14:34:12.327Z,83.40
2018-12-22T14:36:39.278Z,83.70
2018-12-22T14:39:07.149Z,84.50
2018-12-22T14:41:34.079Z,84.40
2018-12-22T14:44:01.037Z,85.00
2018-12-22T14:46:27.999Z,83.40
2018-12-22T14:48:55.000Z,83.50
2018-12-22T14:51:21.959Z,83.70
2018-12-22T14:53:48.970Z,82.30
2018-12-22T14:56:16.641Z,82.70
2018-12-22T14:58:43.603Z,81.80
2018-12-22T15:01:10.533Z,81.70
2018-12-22T15:03:37.443Z,82.30
2018-12-22T15:06:04.413Z,82.20
2018-12-22T15:08:31.499Z,82.90
2018-12-22T15:10:58.425Z,82.30
2018-12-22T15:13:25.371Z,81.80
2018-12-22T15:15:52.304Z,81.80
2018-12-22T15:18:19.351Z,83.10
2018-12-22T15:20:46.763Z,83.20
2018-12-22T15:23:14.676Z,82.90
2018-12-22T15:25:41.687Z,82.80
2018-12-22T15:28:08.641Z,82.90
2018-12-22T15:30:35.579Z,82.90
2018-12-22T15:33:02.643Z,82.70
2018-12-22T15:35:29.600Z,83.10
2018-12-22T15:37:58.508Z,83.20
2018-12-22T15:40:23.481Z,83.60
2018-12-22T15:42:50.443Z,84.50
2018-12-22T15:45:18.706Z,85.30
2018-12-22T15:47:45.724Z,86.40
2018-12-22T15:50:15.203Z,88.80
2018-12-22T15:52:42.145Z,90.10
2018-12-22T15:55:09.103Z,91.10
2018-12-22T15:57:36.496Z,91.10
2018-12-22T16:00:04.615Z,91.10
2018-12-22T16:02:31.536Z,91.10
2018-12-22T16:04:58.530Z,91.20
2018-12-22T16:07:25.454Z,91.50
2018-12-22T16:09:52.470Z,91.80
2018-12-22T16:12:19.441Z,91.80
2018-12-22T16:14:46.449Z,91.90
2018-12-22T16:17:13.403Z,92.10
2018-12-22T16:19:40.373Z,92.70
2018-12-22T16:22:07.832Z,93.00
2018-12-22T16:24:34.775Z,93.60
2018-12-22T16:27:01.740Z,94.40
2018-12-22T16:29:33.823Z,94.70
2018-12-22T16:32:00.749Z,94.40
2018-12-22T16:34:27.684Z,94.60
2018-12-22T16:36:54.611Z,94.60
2018-12-22T16:39:21.561Z,94.80
2018-12-22T16:41:48.525Z,95.00
2018-12-22T16:44:17.250Z,95.30
2018-12-22T16:46:44.195Z,95.30
2018-12-22T16:49:11.179Z,94.90
2018-12-22T16:51:38.120Z,94.80
2018-12-22T16:54:05.052Z,94.70
2018-12-22T16:56:32.001Z,94.70
2018-12-22T16:59:00.042Z,94.90
2018-12-22T17:01:58.867Z,94.80
2018-12-22T17:04:25.802Z,95.10
2018-12-22T17:06:52.730Z,94.80
2018-12-22T17:09:19.677Z,94.50
2018-12-22T17:11:46.615Z,95.20
2018-12-22T17:14:13.591Z,95.40
2018-12-22T17:16:40.587Z,95.20
2018-12-22T17:19:07.502Z,95.50
2018-12-22T17:21:41.410Z,95.20
2018-12-22T17:24:14.759Z,95.30
2018-12-22T17:26:43.780Z,95.50
2018-12-22T17:29:10.728Z,95.70
2018-12-22T17:31:39.569Z,95.50
2018-12-22T17:34:12.288Z,95.60
2018-12-22T17:36:39.264Z,95.40
2018-12-22T17:39:08.834Z,95.30
2018-12-22T17:41:35.839Z,95.70
2018-12-22T17:44:02.772Z,95.20
2018-12-22T17:46:29.739Z,95.10
2018-12-22T17:48:56.735Z,95.10
2018-12-22T17:51:23.685Z,95.00
2018-12-22T17:53:50.632Z,94.90
2018-12-22T17:56:17.577Z,95.50
2018-12-22T17:58:44.541Z,95.30
2018-12-22T18:01:11.589Z,95.00
2018-12-22T18:03:38.558Z,95.20
2018-12-22T18:06:05.544Z,95.50
2018-12-22T18:08:32.524Z,95.50
2018-12-22T18:10:59.477Z,95.40
2018-12-22T18:13:28.123Z,95.40
2018-12-22T18:15:56.268Z,95.50
2018-12-22T18:18:23.221Z,95.50
2018-12-22T18:20:54.373Z,95.20
2018-12-22T18:23:21.354Z,95.10
2018-12-22T18:25:48.846Z,95.60
2018-12-22T18:28:15.787Z,95.20
2018-12-22T18:30:44.829Z,95.10
2018-12-22T18:33:11.753Z,95.10
2018-12-22T18:35:38.689Z,94.80
2018-12-22T18:38:05.636Z,94.60
2018-12-22T18:40:32.579Z,94.60
2018-12-22T18:42:59.547Z,94.90
2018-12-22T18:45:26.530Z,95.20
2018-12-22T18:47:53.471Z,94.60
2018-12-22T18:50:24.011Z,94.80
2018-12-22T18:52:50.974Z,94.80
2018-12-22T18:55:17.907Z,94.90
2018-12-22T18:57:47.271Z,94.30
2018-12-22T19:00:16.926Z,94.70
2018-12-22T19:02:43.972Z,94.10
2018-12-22T19:05:11.619Z,94.30
2018-12-22T19:07:38.639Z,94.70
2018-12-22T19:10:11.993Z,95.10
2018-12-22T19:12:38.934Z,94.70
2018-12-22T19:15:05.933Z,94.60
2018-12-22T19:17:33.440Z,93.90
2018-12-22T19:20:00.543Z,94.30
2018-12-22T19:22:27.479Z,93.70
2018-12-22T19:24:54.410Z,93.90
2018-12-22T19:27:21.676Z,94.00
2018-12-22T19:29:48.653Z,93.90
2018-12-22T19:32:15.602Z,94.10
2018-12-22T19:34:42.528Z,94.00
2018-12-22T19:37:09.844Z,94.30
2018-12-22T19:39:36.789Z,94.20
2018-12-22T19:42:03.824Z,94.00
2018-12-22T19:44:30.787Z,94.00
2018-12-22T19:46:57.779Z,94.00
2018-12-22T19:49:24.704Z,94.20
2018-12-22T19:51:51.692Z,94.50
2018-12-22T19:54:18.645Z,94.70
2018-12-22T19:56:45.580Z,94.80
2018-12-22T19:59:12.691Z,94.40
2018-12-22T20:01:39.623Z,94.10
2018-12-22T20:04:06.569Z,94.10
2018-12-22T20:06:33.548Z,94.40
2018-12-22T20:09:00.483Z,94.50
2018-12-22T20:11:27.431Z,94.70
2018-12-22T20:13:54.533Z,94.50
2018-12-22T20:16:21.360Z,94.50
2018-12-22T20:18:48.317Z,94.10
2018-12-22T20:21:15.271Z,94.40
2018-12-22T20:23:42.200Z,94.70
2018-12-22T20:26:09.126Z,94.50
2018-12-22T20:28:36.904Z,94.40
2018-12-22T20:31:03.877Z,94.90
2018-12-22T20:33:30.852Z,94.80
2018-12-22T20:35:57.808Z,94.90
2018-12-22T20:38:24.761Z,95.10
2018-12-22T20:40:51.802Z,94.90
2018-12-22T20:43:18.812Z,94.70
2018-12-22T20:45:45.744Z,94.90
2018-12-22T20:48:12.691Z,94.70
2018-12-22T20:50:39.657Z,94.50
2018-12-22T20:53:06.630Z,94.10
2018-12-22T20:55:33.556Z,94.40
2018-12-22T20:58:00.540Z,94.40
2018-12-22T21:00:27.510Z,94.50
2018-12-22T21:02:54.436Z,94.10
2018-12-22T21:05:21.449Z,94.30
2018-12-22T21:07:48.401Z,94.50
2018-12-22T21:10:15.347Z,94.40
2018-12-22T21:12:42.328Z,93.90
2018-12-22T21:15:09.271Z,93.80
2018-12-22T21:17:36.210Z,94.00
2018-12-22T21:20:03.161Z,94.00
2018-12-22T21:22:30.199Z,93.60
2018-12-22T21:24:57.239Z,93.90
2018-12-22T21:27:24.183Z,93.90
2018-12-22T21:29:51.632Z,93.80
2018-12-22T21:32:18.576Z,94.60
2018-12-22T21:34:45.539Z,94.40
2018-12-22T21:37:12.481Z,94.10
2018-12-22T21:39:39.432Z,94.60
2018-12-22T21:42:06.436Z,94.20
2018-12-22T21:44:33.420Z,94.70
2018-12-22T21:47:00.347Z,94.20
2018-12-22T21:49:27.303Z,93.70
2018-12-22T21:51:54.264Z,94.30
2018-12-22T21:54:21.294Z,94.40
2018-12-22T21:56:48.258Z,94.40
2018-12-22T21:59:15.214Z,94.40
2018-12-22T22:01:42.155Z,94.70
2018-12-22T22:04:09.100Z,94.70
2018-12-22T22:06:36.671Z,95.00
2018-12-22T22:09:04.553Z,94.70
2018-12-22T22:11:31.512Z,94.80
2018-12-22T22:13:58.467Z,94.60
2018-12-22T22:16:25.422Z,94.80
2018-12-22T22:18:52.399Z,94.20
2018-12-22T22:21:19.341Z,94.10
2018-12-22T22:23:46.310Z,94.00
2018-12-22T22:26:13.273Z,93.80
2018-12-22T22:28:40.252Z,94.10
2018-12-22T22:31:07.433Z,94.10
2018-12-22T22:33:34.409Z,93.60
2018-12-22T22:36:01.354Z,93.80
2018-12-22T22:38:28.564Z,93.40
2018-12-22T22:40:55.539Z,93.20
2018-12-22T22:43:23.394Z,93.60
2018-12-22T22:45:51.378Z,93.50
2018-12-22T22:48:18.392Z,93.30
2018-12-22T22:50:45.339Z,93.60
2018-12-22T22:53:12.284Z,94.50
2018-12-22T22:55:45.312Z,93.30
2018-12-22T22:58:12.360Z,93.50
2018-12-22T23:00:39.419Z,93.20
2018-12-22T23:03:06.444Z,93.30
2018-12-22T23:05:33.385Z,93.10
2018-12-22T23:08:00.387Z,93.20
2018-12-22T23:10:27.809Z,92.90
2018-12-22T23:12:54.839Z,93.00
2018-12-22T23:15:21.704Z,92.90
2018-12-22T23:17:48.661Z,92.80
2018-12-22T23:20:15.599Z,93.10
2018-12-22T23:22:42.549Z,92.90
2018-12-22T23:25:09.500Z,92.90
2018-12-22T23:27:36.445Z,92.70
2018-12-22T23:30:03.729Z,92.70
2018-12-22T23:32:30.892Z,92.70
2018-12-22T23:35:02.905Z,93.10
2018-12-22T23:37:24.780Z,93.30
2018-12-22T23:39:51.725Z,93.00
2018-12-22T23:42:18.665Z,93.60
2018-12-22T23:44:45.614Z,93.20
2018-12-22T23:47:12.597Z,93.50
2018-12-22T23:49:39.547Z,93.70
2018-12-22T23:52:06.489Z,93.80
2018-12-22T23:54:33.449Z,94.00
2018-12-22T23:57:00.395Z,93.80
2018-12-22T23:59:27.340Z,93.90
